createdAt,value
2018-08-19T00:00:27.237Z,934.73
2018-08-19T00:01:27.320Z,934.71
2018-08-19T00:02:27.300Z,934.77
2018-08-19T00:03:27.520Z,934.73
2018-08-19T00:04:27.414Z,934.74
2018-08-19T00:05:27.452Z,934.76
2018-08-19T00:06:27.484Z,934.75
2018-08-19T00:07:27.543Z,934.71
2018-08-19T00:08:27.590Z,934.74
2018-08-19T00:09:27.618Z,934.73
2018-08-19T00:10:27.647Z,934.74
2018-08-19T00:11:27.687Z,934.77
2018-08-19T00:12:27.724Z,934.78
2018-08-19T00:13:27.894Z,934.75
2018-08-19T00:14:27.840Z,934.76
2018-08-19T00:15:27.871Z,934.78
2018-08-19T00:16:27.903Z,934.80
2018-08-19T00:17:27.950Z,934.80
2018-08-19T00:18:28.048Z,934.82
2018-08-19T00:19:28.051Z,934.79
2018-08-19T00:20:28.103Z,934.78
2018-08-19T00:21:28.114Z,934.82
2018-08-19T00:22:28.184Z,934.85
2018-08-19T00:23:28.378Z,934.88
2018-08-19T00:24:28.267Z,934.84
2018-08-19T00:25:28.315Z,934.85
2018-08-19T00:26:28.331Z,934.87
2018-08-19T00:27:28.377Z,934.80
2018-08-19T00:28:28.443Z,934.82
2018-08-19T00:29:28.478Z,934.82
2018-08-19T00:30:28.506Z,934.82
2018-08-19T00:31:28.562Z,934.80
2018-08-19T00:32:28.576Z,934.82
2018-08-19T00:33:28.729Z,934.80
2018-08-19T00:34:28.699Z,934.82
2018-08-19T00:35:28.724Z,934.84
2018-08-19T00:36:28.769Z,934.86
2018-08-19T00:37:28.848Z,934.87
2018-08-19T00:38:28.847Z,934.85
2018-08-19T00:39:28.918Z,934.82
2018-08-19T00:40:28.939Z,934.86
2018-08-19T00:41:28.969Z,934.83
2018-08-19T00:42:29.024Z,934.80
2018-08-19T00:43:29.047Z,934.79
2018-08-19T00:44:29.093Z,934.78
2018-08-19T00:45:29.157Z,934.75
2018-08-19T00:46:29.219Z,934.76
2018-08-19T00:47:29.248Z,934.78
2018-08-19T00:48:29.279Z,934.79
2018-08-19T00:49:29.337Z,934.77
2018-08-19T00:50:29.357Z,934.79
2018-08-19T00:51:29.423Z,934.75
2018-08-19T00:52:29.450Z,934.79
2018-08-19T00:53:29.635Z,934.83
2018-08-19T00:54:29.552Z,934.79
2018-08-19T00:55:29.602Z,934.77
2018-08-19T00:56:29.632Z,934.77
2018-08-19T00:57:29.689Z,934.73
2018-08-19T00:58:29.706Z,934.76
2018-08-19T00:59:29.921Z,934.75
2018-08-19T01:00:29.802Z,934.77
2018-08-19T01:01:29.871Z,934.77
2018-08-19T01:02:29.889Z,934.77
2018-08-19T01:03:29.918Z,934.73
2018-08-19T01:04:29.954Z,934.74
2018-08-19T01:05:30.018Z,934.74
2018-08-19T01:06:30.044Z,934.73
2018-08-19T01:07:30.090Z,934.75
2018-08-19T01:08:30.154Z,934.72
2018-08-19T01:09:30.193Z,934.71
2018-08-19T01:10:30.229Z,934.75
2018-08-19T01:11:30.276Z,934.71
2018-08-19T01:12:30.297Z,934.74
2018-08-19T01:13:30.360Z,934.78
2018-08-19T01:14:30.399Z,934.76
2018-08-19T01:15:30.572Z,934.73
2018-08-19T01:16:30.484Z,934.75
2018-08-19T01:17:30.516Z,934.73
2018-08-19T01:18:30.552Z,934.73
2018-08-19T01:19:30.649Z,934.73
2018-08-19T01:20:30.650Z,934.74
2018-08-19T01:21:30.853Z,934.73
2018-08-19T01:22:30.745Z,934.74
2018-08-19T01:23:30.780Z,934.72
2018-08-19T01:24:30.814Z,934.73
2018-08-19T01:25:30.867Z,934.73
2018-08-19T01:26:30.898Z,934.70
2018-08-19T01:27:31.088Z,934.72
2018-08-19T01:28:31.039Z,934.72
2018-08-19T01:29:31.022Z,934.71
2018-08-19T01:30:31.094Z,934.76
2018-08-19T01:31:31.140Z,934.74
2018-08-19T01:32:31.164Z,934.75
2018-08-19T01:33:31.208Z,934.77
2018-08-19T01:34:31.248Z,934.76
2018-08-19T01:35:31.290Z,934.80
2018-08-19T01:36:31.323Z,934.80
2018-08-19T01:37:31.555Z,934.78
2018-08-19T01:38:31.428Z,934.78
2018-08-19T01:39:31.464Z,934.81
2018-08-19T01:40:31.522Z,934.78
2018-08-19T01:41:31.542Z,934.83
2018-08-19T01:42:31.600Z,934.80
2018-08-19T01:43:31.628Z,934.76
2018-08-19T01:44:31.837Z,934.78
2018-08-19T01:45:31.725Z,934.81
2018-08-19T01:46:31.770Z,934.74
2018-08-19T01:47:31.812Z,934.73
2018-08-19T01:48:31.877Z,934.70
2018-08-19T01:49:31.875Z,934.70
2018-08-19T01:50:32.076Z,934.71
2018-08-19T01:51:31.974Z,934.72
2018-08-19T01:52:32.035Z,934.66
2018-08-19T01:53:32.091Z,934.68
2018-08-19T01:54:32.119Z,934.68
2018-08-19T01:55:32.163Z,934.69
2018-08-19T01:56:32.179Z,934.70
2018-08-19T01:57:32.240Z,934.74
2018-08-19T01:58:32.288Z,934.71
2018-08-19T01:59:32.309Z,934.71
2018-08-19T02:00:32.521Z,934.67
2018-08-19T02:01:32.419Z,934.63
2018-08-19T02:02:32.514Z,934.66
2018-08-19T02:03:32.591Z,934.66
2018-08-19T02:04:32.582Z,934.66
2018-08-19T02:05:32.618Z,934.67
2018-08-19T02:06:32.708Z,934.61
2018-08-19T02:07:32.898Z,934.62
2018-08-19T02:08:32.749Z,934.61
2018-08-19T02:09:32.848Z,934.62
2018-08-19T02:10:32.786Z,934.64
2018-08-19T02:11:32.887Z,934.66
2018-08-19T02:12:32.862Z,934.63
2018-08-19T02:13:33.134Z,934.63
2018-08-19T02:14:33.006Z,934.68
2018-08-19T02:15:33.045Z,934.67
2018-08-19T02:16:33.110Z,934.60
2018-08-19T02:17:33.095Z,934.63
2018-08-19T02:18:33.240Z,934.66
2018-08-19T02:19:33.470Z,934.70
2018-08-19T02:20:33.262Z,934.68
2018-08-19T02:21:33.304Z,934.65
2018-08-19T02:22:33.371Z,934.64
2018-08-19T02:23:33.406Z,934.62
2018-08-19T02:24:33.378Z,934.63
2018-08-19T02:25:33.501Z,934.58
2018-08-19T02:26:33.540Z,934.58
2018-08-19T02:27:33.543Z,934.57
2018-08-19T02:28:33.613Z,934.53
2018-08-19T02:29:33.822Z,934.54
2018-08-19T02:30:33.645Z,934.53
2018-08-19T02:31:33.703Z,934.48
2018-08-19T02:32:33.734Z,934.51
2018-08-19T02:33:33.829Z,934.45
2018-08-19T02:34:33.875Z,934.51
2018-08-19T02:35:33.954Z,934.46
2018-08-19T02:36:34.150Z,934.44
2018-08-19T02:37:34.006Z,934.48
2018-08-19T02:38:34.004Z,934.43
2018-08-19T02:39:34.041Z,934.47
2018-08-19T02:40:34.151Z,934.44
2018-08-19T02:41:34.220Z,934.42
2018-08-19T02:42:34.207Z,934.39
2018-08-19T02:43:34.269Z,934.38
2018-08-19T02:44:34.339Z,934.32
2018-08-19T02:45:34.293Z,934.33
2018-08-19T02:46:34.593Z,934.30
2018-08-19T02:47:34.443Z,934.30
2018-08-19T02:48:34.454Z,934.30
2018-08-19T02:49:34.461Z,934.31
2018-08-19T02:50:34.491Z,934.32
2018-08-19T02:51:34.552Z,934.32
2018-08-19T02:52:34.574Z,934.27
2018-08-19T02:53:34.716Z,934.29
2018-08-19T02:54:34.675Z,934.31
2018-08-19T02:55:34.730Z,934.34
2018-08-19T02:56:34.764Z,934.32
2018-08-19T02:57:34.793Z,934.31
2018-08-19T02:58:34.841Z,934.26
2018-08-19T02:59:35.011Z,934.27
2018-08-19T03:00:34.921Z,934.23
2018-08-19T03:01:34.955Z,934.23
2018-08-19T03:02:35.019Z,934.20
2018-08-19T03:03:35.038Z,934.15
2018-08-19T03:04:35.082Z,934.18
2018-08-19T03:05:35.177Z,934.14
2018-08-19T03:06:35.194Z,934.16
2018-08-19T03:09:35.300Z,934.15
2018-08-19T03:10:35.450Z,934.15
2018-08-19T03:11:35.408Z,934.14
2018-08-19T03:12:35.438Z,934.15
2018-08-19T03:13:35.464Z,934.11
2018-08-19T03:14:35.532Z,934.11
2018-08-19T03:15:35.566Z,934.09
2018-08-19T03:16:35.597Z,934.08
2018-08-19T03:17:35.648Z,934.11
2018-08-19T03:18:35.673Z,934.11
2018-08-19T03:19:35.748Z,934.09
2018-08-19T03:20:35.765Z,934.10
2018-08-19T03:21:36.005Z,934.11
2018-08-19T03:22:35.862Z,934.11
2018-08-19T03:23:35.924Z,934.10
2018-08-19T03:24:35.933Z,934.11
2018-08-19T03:25:36.000Z,934.11
2018-08-19T03:26:36.034Z,934.10
2018-08-19T03:27:36.089Z,934.11
2018-08-19T03:28:36.116Z,934.05
2018-08-19T03:29:36.172Z,934.02
2018-08-19T03:30:36.241Z,934.03
2018-08-19T03:31:36.245Z,934.01
2018-08-19T03:32:36.379Z,934.03
2018-08-19T03:33:36.358Z,934.01
2018-08-19T03:34:36.356Z,934.02
2018-08-19T03:35:36.400Z,934.00
2018-08-19T03:36:36.461Z,933.94
2018-08-19T03:37:36.506Z,933.97
2018-08-19T03:39:36.579Z,933.92
2018-08-19T03:40:36.634Z,933.91
2018-08-19T03:41:36.681Z,933.92
2018-08-19T03:43:36.772Z,933.91
2018-08-19T03:44:36.798Z,933.93
2018-08-19T03:45:36.830Z,933.87
2018-08-19T03:46:36.884Z,933.87
2018-08-19T03:47:36.958Z,933.88
2018-08-19T03:48:36.972Z,933.92
2018-08-19T03:50:37.068Z,933.91
2018-08-19T03:52:37.129Z,933.95
2018-08-19T03:53:37.345Z,933.92
2018-08-19T03:54:37.239Z,933.91
2018-08-19T03:55:37.313Z,933.88
2018-08-19T03:56:37.294Z,933.89
2018-08-19T03:57:37.365Z,933.86
2018-08-19T03:58:37.412Z,933.88
2018-08-19T03:59:37.433Z,933.87
2018-08-19T04:00:39.027Z,933.85
2018-08-19T04:05:37.682Z,933.85
2018-08-19T04:07:37.935Z,933.84
2018-08-19T04:08:37.843Z,933.81
2018-08-19T04:09:37.911Z,933.85
2018-08-19T04:10:37.913Z,933.83
2018-08-19T04:11:37.952Z,933.78
2018-08-19T04:12:38.084Z,933.78
2018-08-19T04:13:38.043Z,933.76
2018-08-19T04:14:38.123Z,933.79
2018-08-19T04:15:38.136Z,933.80
2018-08-19T04:16:38.165Z,933.86
2018-08-19T04:17:39.934Z,933.78
2018-08-19T04:18:38.452Z,933.74
2018-08-19T04:19:38.330Z,933.74
2018-08-19T04:20:38.331Z,933.74
2018-08-19T04:21:38.374Z,933.73
2018-08-19T04:22:38.430Z,933.67
2018-08-19T04:23:38.725Z,933.72
2018-08-19T04:24:38.491Z,933.76
2018-08-19T04:27:38.639Z,933.70
2018-08-19T04:28:38.671Z,933.68
2018-08-19T04:29:38.723Z,933.61
2018-08-19T04:30:38.763Z,933.63
2018-08-19T04:32:38.852Z,933.70
2018-08-19T04:33:39.034Z,933.63
2018-08-19T04:34:38.928Z,933.69
2018-08-19T04:35:38.961Z,933.68
2018-08-19T04:37:39.056Z,933.54
2018-08-19T04:38:39.178Z,933.62
2018-08-19T04:39:39.137Z,933.54
2018-08-19T04:40:39.175Z,933.53
2018-08-19T04:41:39.235Z,933.50
2018-08-19T04:42:39.269Z,933.55
2018-08-19T04:43:39.306Z,933.48
2018-08-19T04:45:39.392Z,933.50
2018-08-19T04:46:39.434Z,933.50
2018-08-19T04:48:39.525Z,933.52
2018-08-19T04:49:39.546Z,933.48
2018-08-19T04:50:41.259Z,933.50
2018-08-19T04:51:39.646Z,933.50
2018-08-19T04:52:39.691Z,933.50
2018-08-19T04:53:39.703Z,933.51
2018-08-19T04:54:39.766Z,933.51
2018-08-19T04:55:39.812Z,933.55
2018-08-19T04:56:39.852Z,933.51
2018-08-19T04:57:39.896Z,933.53
2018-08-19T04:58:39.922Z,933.50
2018-08-19T04:59:39.966Z,933.50
2018-08-19T05:00:40.058Z,933.49
2018-08-19T05:01:40.308Z,933.42
2018-08-19T05:02:40.188Z,933.43
2018-08-19T05:03:40.149Z,933.45
2018-08-19T05:04:40.192Z,933.44
2018-08-19T05:05:40.218Z,933.44
2018-08-19T05:06:40.277Z,933.38
2018-08-19T05:07:40.311Z,933.42
2018-08-19T05:08:40.339Z,933.42
2018-08-19T05:09:40.379Z,933.40
2018-08-19T05:10:40.434Z,933.39
2018-08-19T05:11:40.538Z,933.43
2018-08-19T05:12:40.525Z,933.30
2018-08-19T05:13:40.700Z,933.37
2018-08-19T05:14:40.609Z,933.35
2018-08-19T05:15:40.660Z,933.36
2018-08-19T05:16:40.677Z,933.36
2018-08-19T05:17:40.730Z,933.34
2018-08-19T05:18:40.784Z,933.32
2018-08-19T05:19:40.803Z,933.29
2018-08-19T05:20:40.865Z,933.27
2018-08-19T05:21:40.880Z,933.25
2018-08-19T05:22:41.015Z,933.21
2018-08-19T05:23:40.970Z,933.21
2018-08-19T05:24:41.213Z,933.27
2018-08-19T05:25:41.219Z,933.24
2018-08-19T05:27:41.125Z,933.21
2018-08-19T05:28:41.187Z,933.20
2018-08-19T05:29:41.227Z,933.22
2018-08-19T05:30:41.276Z,933.21
2018-08-19T05:31:41.382Z,933.22
2018-08-19T05:33:41.441Z,933.21
2018-08-19T05:34:41.449Z,933.18
2018-08-19T05:35:41.532Z,933.17
2018-08-19T05:36:41.529Z,933.23
2018-08-19T05:37:41.558Z,933.25
2018-08-19T05:38:41.652Z,933.17
2018-08-19T05:41:41.729Z,933.19
2018-08-19T05:42:41.987Z,933.17
2018-08-19T05:43:41.822Z,933.19
2018-08-19T05:44:41.869Z,933.19
2018-08-19T05:45:41.903Z,933.18
2018-08-19T05:46:42.039Z,933.17
2018-08-19T05:47:43.537Z,933.19
2018-08-19T05:48:42.135Z,933.17
2018-08-19T05:49:42.055Z,933.14
2018-08-19T05:52:42.201Z,933.16
2018-08-19T05:53:42.392Z,933.11
2018-08-19T05:54:42.280Z,933.14
2018-08-19T05:55:42.473Z,933.14
2018-08-19T05:56:42.370Z,933.09
2018-08-19T05:57:42.416Z,933.10
2018-08-19T05:58:42.457Z,933.06
2018-08-19T05:59:44.036Z,933.07
2018-08-19T06:00:42.515Z,933.05
2018-08-19T06:01:42.548Z,933.09
2018-08-19T06:03:42.640Z,933.08
2018-08-19T06:04:42.738Z,933.03
2018-08-19T06:05:42.774Z,933.06
2018-08-19T06:06:42.769Z,933.02
2018-08-19T06:07:42.993Z,933.08
2018-08-19T06:08:42.855Z,933.03
2018-08-19T06:09:42.907Z,933.01
2018-08-19T06:10:44.488Z,933.03
2018-08-19T06:11:42.986Z,933.07
2018-08-19T06:12:43.030Z,933.04
2018-08-19T06:13:43.078Z,932.98
2018-08-19T06:14:43.119Z,933.02
2018-08-19T06:15:43.159Z,933.00
2018-08-19T06:16:43.286Z,933.03
2018-08-19T06:17:43.240Z,933.05
2018-08-19T06:18:43.325Z,933.02
2018-08-19T06:19:43.314Z,932.98
2018-08-19T06:21:43.463Z,932.98
2018-08-19T06:22:44.937Z,933.01
2018-08-19T06:24:43.585Z,933.04
2018-08-19T06:26:43.666Z,932.99
2018-08-19T06:27:43.656Z,933.02
2018-08-19T06:28:43.701Z,933.01
2018-08-19T06:29:43.722Z,933.02
2018-08-19T06:30:43.764Z,933.02
2018-08-19T06:31:43.820Z,933.01
2018-08-19T06:32:43.858Z,933.02
2018-08-19T06:33:43.921Z,933.01
2018-08-19T06:35:44.188Z,933.00
2018-08-19T06:36:44.026Z,932.99
2018-08-19T06:38:44.109Z,932.96
2018-08-19T06:39:44.161Z,932.94
2018-08-19T06:40:45.712Z,932.94
2018-08-19T06:41:44.247Z,932.93
2018-08-19T06:42:44.260Z,932.94
2018-08-19T06:43:44.322Z,932.91
2018-08-19T06:44:44.393Z,932.91
2018-08-19T06:46:45.942Z,932.95
2018-08-19T06:47:44.511Z,932.87
2018-08-19T06:48:44.527Z,932.85
2018-08-19T06:49:44.581Z,932.86
2018-08-19T06:51:44.665Z,932.88
2018-08-19T06:53:44.895Z,932.87
2018-08-19T06:54:44.786Z,932.88
2018-08-19T06:55:44.865Z,932.84
2018-08-19T06:58:45.044Z,932.81
2018-08-19T06:59:44.989Z,932.82
2018-08-19T07:00:45.014Z,932.81
2018-08-19T07:02:45.123Z,932.83
2018-08-19T07:04:45.208Z,932.91
2018-08-19T07:05:45.233Z,932.86
2018-08-19T07:06:45.270Z,932.85
2018-08-19T07:07:45.299Z,932.87
2018-08-19T07:08:45.396Z,932.85
2018-08-19T07:09:45.559Z,932.88
2018-08-19T07:10:45.609Z,932.88
2018-08-19T07:11:45.500Z,932.84
2018-08-19T07:12:45.622Z,932.85
2018-08-19T07:13:45.615Z,932.85
2018-08-19T07:14:45.666Z,932.82
2018-08-19T07:15:45.713Z,932.83
2018-08-19T07:17:45.796Z,932.86
2018-08-19T07:18:46.000Z,932.82
2018-08-19T07:19:45.880Z,932.90
2018-08-19T07:20:47.681Z,932.84
2018-08-19T07:21:45.978Z,932.84
2018-08-19T07:22:45.982Z,932.85
2018-08-19T07:24:46.072Z,932.80
2018-08-19T07:25:46.060Z,932.83
2018-08-19T07:26:46.268Z,932.82
2018-08-19T07:27:46.303Z,932.84
2018-08-19T07:28:46.195Z,932.81
2018-08-19T07:29:46.391Z,932.78
2018-08-19T07:30:46.273Z,932.85
2018-08-19T07:33:46.556Z,932.90
2018-08-19T07:35:46.485Z,932.88
2018-08-19T07:36:46.593Z,932.87
2018-08-19T07:38:48.122Z,932.93
2018-08-19T07:39:46.637Z,932.91
2018-08-19T07:42:46.767Z,932.88
2018-08-19T07:43:46.822Z,932.94
2018-08-19T07:44:46.838Z,932.89
2018-08-19T07:45:46.900Z,932.88
2018-08-19T07:46:46.931Z,932.89
2018-08-19T07:48:47.023Z,932.86
2018-08-19T07:50:47.101Z,932.87
2018-08-19T07:51:47.122Z,932.94
2018-08-19T07:52:47.191Z,932.92
2018-08-19T07:53:47.227Z,932.87
2018-08-19T07:54:47.255Z,932.93
2018-08-19T07:55:47.434Z,932.93
2018-08-19T07:56:47.370Z,932.82
2018-08-19T07:57:47.374Z,932.97
2018-08-19T07:58:47.422Z,932.92
2018-08-19T07:59:47.472Z,932.90
2018-08-19T08:00:47.537Z,932.93
2018-08-19T08:01:47.602Z,932.95
2018-08-19T08:02:47.614Z,932.93
2018-08-19T08:03:47.701Z,932.91
2018-08-19T08:04:47.710Z,932.90
2018-08-19T08:05:47.870Z,932.94
2018-08-19T08:06:48.045Z,932.96
2018-08-19T08:08:47.881Z,932.98
2018-08-19T08:09:47.851Z,933.02
2018-08-19T08:10:48.005Z,933.00
2018-08-19T08:13:48.156Z,933.04
2018-08-19T08:14:48.102Z,933.08
2018-08-19T08:15:48.121Z,933.11
2018-08-19T08:16:48.216Z,933.10
2018-08-19T08:17:48.272Z,933.07
2018-08-19T08:19:49.949Z,933.08
2018-08-19T08:22:48.469Z,933.16
2018-08-19T08:23:48.455Z,933.12
2018-08-19T08:24:48.485Z,933.18
2018-08-19T08:25:48.524Z,933.16
2018-08-19T08:27:48.613Z,933.14
2018-08-19T08:28:48.656Z,933.16
2018-08-19T08:31:48.778Z,933.19
2018-08-19T08:32:48.981Z,933.19
2018-08-19T08:34:48.889Z,933.17
2018-08-19T08:35:48.974Z,933.13
2018-08-19T08:36:48.978Z,933.16
2018-08-19T08:38:49.203Z,933.20
2018-08-19T08:39:49.108Z,933.25
2018-08-19T08:40:49.134Z,933.20
2018-08-19T08:41:49.194Z,933.23
2018-08-19T08:42:49.236Z,933.25
2018-08-19T08:43:49.260Z,933.24
2018-08-19T08:44:49.372Z,933.26
2018-08-19T08:45:49.386Z,933.28
2018-08-19T08:46:49.414Z,933.26
2018-08-19T08:47:49.425Z,933.27
2018-08-19T08:49:49.530Z,933.26
2018-08-19T08:50:49.534Z,933.28
2018-08-19T08:51:49.606Z,933.30
2018-08-19T08:52:49.653Z,933.28
2018-08-19T08:53:49.674Z,933.28
2018-08-19T08:54:49.706Z,933.32
2018-08-19T08:56:49.804Z,933.30
2018-08-19T08:57:49.883Z,933.32
2018-08-19T08:58:49.919Z,933.32
2018-08-19T08:59:49.958Z,933.35
2018-08-19T09:01:51.665Z,933.33
2018-08-19T09:02:50.034Z,933.36
2018-08-19T09:03:50.099Z,933.38
2018-08-19T09:04:50.135Z,933.41
2018-08-19T09:06:50.257Z,933.38
2018-08-19T09:07:50.396Z,933.45
2018-08-19T09:08:50.281Z,933.49
2018-08-19T09:10:50.378Z,933.48
2018-08-19T09:11:50.418Z,933.50
2018-08-19T09:12:50.440Z,933.49
2018-08-19T09:13:50.558Z,933.53
2018-08-19T09:14:50.527Z,933.52
2018-08-19T09:15:50.613Z,933.53
2018-08-19T09:16:50.608Z,933.58
2018-08-19T09:17:50.657Z,933.59
2018-08-19T09:18:50.720Z,933.58
2018-08-19T09:20:50.768Z,933.59
2018-08-19T09:21:50.809Z,933.53
2018-08-19T09:22:50.950Z,933.60
2018-08-19T09:24:50.944Z,933.62
2018-08-19T09:25:50.997Z,933.64
2018-08-19T09:26:51.026Z,933.65
2018-08-19T09:27:51.064Z,933.66
2018-08-19T09:28:51.147Z,933.68
2018-08-19T09:30:51.225Z,933.69
2018-08-19T09:31:51.231Z,933.71
2018-08-19T09:32:51.327Z,933.69
2018-08-19T09:33:51.342Z,933.71
2018-08-19T09:34:51.527Z,933.77
2018-08-19T09:35:51.391Z,933.76
2018-08-19T09:36:51.429Z,933.78
2018-08-19T09:37:51.444Z,933.82
2018-08-19T09:38:51.510Z,933.87
2018-08-19T09:39:53.143Z,933.90
2018-08-19T09:40:51.727Z,933.89
2018-08-19T09:41:51.637Z,933.90
2018-08-19T09:43:51.721Z,933.88
2018-08-19T09:44:51.733Z,933.95
2018-08-19T09:45:51.932Z,933.95
2018-08-19T09:46:51.881Z,933.94
2018-08-19T09:47:51.969Z,934.00
2018-08-19T09:48:51.910Z,934.02
2018-08-19T09:49:51.950Z,933.97
2018-08-19T09:51:52.040Z,934.02
2018-08-19T09:52:52.184Z,934.00
2018-08-19T09:54:52.228Z,934.05
2018-08-19T09:56:52.230Z,934.04
2018-08-19T09:57:52.297Z,934.10
2018-08-19T09:58:52.334Z,934.11
2018-08-19T09:59:52.356Z,934.14
2018-08-19T10:00:52.416Z,934.10
2018-08-19T10:02:52.635Z,934.13
2018-08-19T10:03:52.541Z,934.16
2018-08-19T10:05:52.617Z,934.19
2018-08-19T10:07:52.791Z,934.20
2018-08-19T10:08:52.753Z,934.20
2018-08-19T10:09:52.761Z,934.21
2018-08-19T10:10:52.819Z,934.18
2018-08-19T10:11:52.906Z,934.26
2018-08-19T10:12:52.913Z,934.28
2018-08-19T10:13:52.924Z,934.20
2018-08-19T10:14:53.003Z,934.28
2018-08-19T10:16:53.081Z,934.32
2018-08-19T10:17:54.615Z,934.32
2018-08-19T10:18:53.331Z,934.36
2018-08-19T10:19:53.197Z,934.37
2018-08-19T10:20:53.228Z,934.37
2018-08-19T10:22:53.321Z,934.41
2018-08-19T10:24:54.906Z,934.44
2018-08-19T10:25:53.442Z,934.43
2018-08-19T10:26:53.476Z,934.44
2018-08-19T10:27:53.571Z,934.45
2018-08-19T10:28:53.569Z,934.48
2018-08-19T10:30:53.640Z,934.47
2018-08-19T10:31:53.762Z,934.51
2018-08-19T10:32:53.767Z,934.55
2018-08-19T10:33:53.777Z,934.53
2018-08-19T10:35:54.045Z,934.54
2018-08-19T10:36:53.902Z,934.57
2018-08-19T10:37:53.947Z,934.56
2018-08-19T10:38:54.009Z,934.60
2018-08-19T10:40:54.634Z,934.69
2018-08-19T10:41:55.732Z,934.66
2018-08-19T10:42:55.670Z,934.64
2018-08-19T10:43:54.184Z,934.67
2018-08-19T10:45:54.314Z,934.63
2018-08-19T10:46:54.355Z,934.64
2018-08-19T10:47:54.364Z,934.64
2018-08-19T10:48:54.399Z,934.63
2018-08-19T10:49:54.594Z,934.68
2018-08-19T10:51:54.516Z,934.64
2018-08-19T10:52:54.611Z,934.66
2018-08-19T10:53:54.597Z,934.71
2018-08-19T10:54:54.628Z,934.63
2018-08-19T10:56:54.797Z,934.70
2018-08-19T10:57:54.769Z,934.69
2018-08-19T10:58:54.813Z,934.70
2018-08-19T10:59:54.912Z,934.70
2018-08-19T11:00:54.915Z,934.74
2018-08-19T11:03:55.030Z,934.71
2018-08-19T11:04:55.123Z,934.73
2018-08-19T11:06:55.172Z,934.79
2018-08-19T11:08:55.259Z,934.79
2018-08-19T11:09:55.299Z,934.80
2018-08-19T11:10:55.352Z,934.77
2018-08-19T11:11:55.398Z,934.78
2018-08-19T11:12:55.474Z,934.83
2018-08-19T11:13:55.493Z,934.81
2018-08-19T11:14:55.524Z,934.80
2018-08-19T11:15:55.571Z,934.87
2018-08-19T11:16:55.796Z,934.86
2018-08-19T11:17:55.659Z,934.85
2018-08-19T11:18:55.724Z,934.86
2018-08-19T11:19:55.760Z,934.87
2018-08-19T11:20:55.802Z,934.95
2018-08-19T11:21:55.851Z,934.88
2018-08-19T11:22:55.893Z,934.95
2018-08-19T11:23:55.951Z,934.93
2018-08-19T11:24:55.969Z,934.92
2018-08-19T11:26:56.054Z,934.98
2018-08-19T11:28:56.328Z,934.95
2018-08-19T11:29:56.217Z,934.95
2018-08-19T11:31:56.286Z,934.97
2018-08-19T11:32:56.337Z,935.04
2018-08-19T11:33:56.615Z,935.03
2018-08-19T11:34:56.455Z,934.96
2018-08-19T11:35:56.488Z,934.98
2018-08-19T11:36:56.553Z,934.99
2018-08-19T11:37:56.564Z,935.05
2018-08-19T11:38:56.632Z,935.04
2018-08-19T11:39:56.676Z,935.11
2018-08-19T11:40:56.709Z,935.15
2018-08-19T11:41:56.774Z,935.23
2018-08-19T11:43:56.870Z,935.21
2018-08-19T11:44:56.956Z,935.17
2018-08-19T11:45:56.954Z,935.24
2018-08-19T11:46:56.985Z,935.16
2018-08-19T11:47:57.031Z,935.17
2018-08-19T11:48:57.133Z,935.22
2018-08-19T11:50:57.196Z,935.23
2018-08-19T11:51:57.206Z,935.25
2018-08-19T11:52:57.279Z,935.22
2018-08-19T11:53:57.304Z,935.27
2018-08-19T11:54:57.377Z,935.28
2018-08-19T11:55:57.454Z,935.35
2018-08-19T11:58:57.679Z,935.37
2018-08-19T11:59:57.608Z,935.37
2018-08-19T12:00:57.685Z,935.42
2018-08-19T12:01:57.753Z,935.35
2018-08-19T12:02:57.773Z,935.36
2018-08-19T12:03:57.813Z,935.36
2018-08-19T12:04:57.874Z,935.36
2018-08-19T12:05:57.919Z,935.39
2018-08-19T12:06:57.981Z,935.37
2018-08-19T12:08:58.073Z,935.37
2018-08-19T12:09:58.109Z,935.41
2018-08-19T12:10:58.218Z,935.43
2018-08-19T12:12:58.283Z,935.42
2018-08-19T12:13:58.339Z,935.48
2018-08-19T12:14:58.487Z,935.48
2018-08-19T12:15:58.452Z,935.49
2018-08-19T12:16:58.510Z,935.47
2018-08-19T12:18:58.579Z,935.39
2018-08-19T12:19:58.656Z,935.37
2018-08-19T12:23:58.863Z,935.39
2018-08-19T12:24:58.916Z,935.38
2018-08-19T12:25:58.952Z,935.41
2018-08-19T12:27:00.733Z,935.40
2018-08-19T12:27:59.102Z,935.38
2018-08-19T12:28:59.123Z,935.41
2018-08-19T12:29:59.153Z,935.42
2018-08-19T12:30:59.213Z,935.41
2018-08-19T12:31:59.264Z,935.40
2018-08-19T12:33:00.836Z,935.44
2018-08-19T12:33:59.427Z,935.44
2018-08-19T12:34:59.439Z,935.38
2018-08-19T12:35:59.494Z,935.46
2018-08-19T12:36:59.595Z,935.49
2018-08-19T12:37:59.587Z,935.48
2018-08-19T12:38:59.642Z,935.46
2018-08-19T12:39:59.711Z,935.50
2018-08-19T12:40:59.744Z,935.50
2018-08-19T12:41:59.789Z,935.52
2018-08-19T12:43:59.896Z,935.51
2018-08-19T12:44:59.968Z,935.49
2018-08-19T12:46:00.024Z,935.45
2018-08-19T12:47:00.059Z,935.48
2018-08-19T12:48:00.118Z,935.49
2018-08-19T12:49:00.210Z,935.46
2018-08-19T12:50:00.262Z,935.44
2018-08-19T12:51:00.484Z,935.49
2018-08-19T12:52:00.350Z,935.48
2018-08-19T12:53:00.381Z,935.47
2018-08-19T12:55:00.481Z,935.47
2018-08-19T12:56:00.549Z,935.46
2018-08-19T12:57:00.624Z,935.48
2018-08-19T12:58:00.657Z,935.46
2018-08-19T12:59:00.753Z,935.47
2018-08-19T13:02:00.889Z,935.47
2018-08-19T13:03:00.919Z,935.41
2018-08-19T13:04:00.977Z,935.47
2018-08-19T13:06:01.142Z,935.45
2018-08-19T13:08:01.211Z,935.45
2018-08-19T13:09:01.277Z,935.42
2018-08-19T13:10:01.351Z,935.36
2018-08-19T13:11:01.372Z,935.39
2018-08-19T13:12:01.404Z,935.33
2018-08-19T13:13:01.494Z,935.32
2018-08-19T13:14:01.723Z,935.33
2018-08-19T13:15:03.298Z,935.27
2018-08-19T13:16:01.633Z,935.33
2018-08-19T13:18:01.743Z,935.30
2018-08-19T13:19:03.857Z,935.27
2018-08-19T13:20:01.868Z,935.26
2018-08-19T13:21:02.061Z,935.24
2018-08-19T13:22:03.527Z,935.18
2018-08-19T13:23:02.065Z,935.14
2018-08-19T13:24:02.076Z,935.17
2018-08-19T13:27:02.245Z,935.15
2018-08-19T13:28:02.301Z,935.18
2018-08-19T13:29:02.362Z,935.15
2018-08-19T13:31:02.472Z,935.16
2018-08-19T13:32:02.535Z,935.14
2018-08-19T13:34:02.626Z,935.11
2018-08-19T13:35:02.669Z,935.11
2018-08-19T13:37:02.789Z,935.15
2018-08-19T13:40:02.945Z,935.06
2018-08-19T13:41:03.053Z,935.10
2018-08-19T13:42:03.096Z,935.06
2018-08-19T13:44:03.347Z,935.06
2018-08-19T13:45:03.234Z,935.03
2018-08-19T13:46:03.290Z,935.03
2018-08-19T13:47:03.381Z,935.00
2018-08-19T13:48:03.434Z,934.97
2018-08-19T13:49:03.485Z,934.99
2018-08-19T13:51:03.717Z,935.00
2018-08-19T13:52:03.640Z,934.94
2018-08-19T13:54:03.765Z,934.92
2018-08-19T13:55:03.816Z,934.93
2018-08-19T13:56:03.866Z,934.89
2018-08-19T13:58:03.981Z,934.95
2018-08-19T13:59:04.027Z,934.91
2018-08-19T14:00:04.104Z,934.92
2018-08-19T14:01:04.167Z,934.93
2018-08-19T14:02:04.209Z,934.93
2018-08-19T14:03:05.766Z,934.92
2018-08-19T14:04:04.336Z,934.87
2018-08-19T14:05:04.379Z,934.87
2018-08-19T14:06:04.450Z,934.87
2018-08-19T14:08:04.558Z,934.81
2018-08-19T14:09:04.754Z,934.82
2018-08-19T14:10:04.676Z,934.81
2018-08-19T14:11:04.732Z,934.77
2018-08-19T14:12:04.842Z,934.77
2018-08-19T14:13:04.857Z,934.75
2018-08-19T14:14:04.905Z,934.76
2018-08-19T14:16:05.132Z,934.67
2018-08-19T14:17:05.050Z,934.67
2018-08-19T14:18:05.153Z,934.63
2018-08-19T14:19:05.199Z,934.59
2018-08-19T14:20:05.243Z,934.55
2018-08-19T14:21:05.328Z,934.53
2018-08-19T14:23:05.421Z,934.51
2018-08-19T14:24:05.474Z,934.51
2018-08-19T14:26:05.584Z,934.48
2018-08-19T14:27:05.658Z,934.46
2018-08-19T14:29:05.758Z,934.44
2018-08-19T14:30:05.960Z,934.44